createdAt,value
2023-05-17T00:01:13.827Z,96.10
2023-05-17T00:03:42.062Z,96.20
2023-05-17T00:06:09.465Z,96.20
2023-05-17T00:08:36.360Z,96.30
2023-05-17T00:11:03.584Z,96.30
2023-05-17T00:13:30.610Z,96.30
2023-05-17T00:15:57.501Z,96.30
2023-05-17T00:18:24.518Z,96.40
2023-05-17T00:20:52.792Z,96.50
2023-05-17T00:23:19.609Z,96.60
2023-05-17T00:25:46.806Z,96.60
2023-05-17T00:28:13.707Z,96.70
2023-05-17T00:30:40.555Z,96.70
2023-05-17T00:33:07.493Z,96.70
2023-05-17T00:35:34.481Z,97.10
2023-05-17T00:38:03.156Z,96.80
2023-05-17T00:40:30.000Z,96.80
2023-05-17T00:42:56.905Z,96.80
2023-05-17T00:45:24.072Z,96.90
2023-05-17T00:47:51.090Z,96.90
2023-05-17T00:50:18.420Z,97.00
2023-05-17T00:52:46.126Z,97.10
2023-05-17T00:55:14.422Z,97.10
2023-05-17T00:57:41.447Z,97.20
2023-05-17T01:00:09.795Z,97.30
2023-05-17T01:02:36.806Z,97.40
2023-05-17T01:05:04.484Z,97.40
2023-05-17T01:07:31.526Z,97.50
2023-05-17T01:09:59.248Z,97.80
2023-05-17T01:12:36.129Z,97.60
2023-05-17T01:15:13.111Z,97.70
2023-05-17T01:17:53.653Z,97.70
2023-05-17T01:20:25.028Z,97.70
2023-05-17T01:23:03.704Z,98.00
2023-05-17T01:25:50.019Z,98.00
2023-05-17T01:28:20.271Z,98.10
2023-05-17T01:30:50.360Z,98.10
2023-05-17T01:33:18.312Z,98.10
2023-05-17T01:35:45.354Z,98.10
2023-05-17T01:38:12.227Z,98.20
2023-05-17T01:40:45.317Z,98.20
2023-05-17T01:43:25.026Z,98.30
2023-05-17T01:45:59.748Z,98.30
2023-05-17T01:48:34.971Z,98.30
2023-05-17T01:51:03.928Z,98.40
2023-05-17T01:53:37.825Z,98.40
2023-05-17T01:56:10.416Z,98.50
2023-05-17T01:58:45.650Z,98.50
2023-05-17T02:01:14.558Z,98.50
2023-05-17T02:03:41.498Z,98.60
2023-05-17T02:06:08.482Z,98.60
2023-05-17T02:08:35.313Z,98.70
2023-05-17T02:11:02.261Z,98.70
2023-05-17T02:13:29.420Z,98.70
2023-05-17T02:16:00.499Z,98.80
2023-05-17T02:18:27.708Z,98.80
2023-05-17T02:20:54.823Z,98.80
2023-05-17T02:23:21.986Z,98.90
2023-05-17T02:25:48.839Z,98.90
2023-05-17T02:28:15.738Z,99.00
2023-05-17T02:30:42.674Z,99.00
2023-05-17T02:33:10.998Z,99.00
2023-05-17T02:35:37.986Z,99.00
2023-05-17T02:38:05.170Z,99.10
2023-05-17T02:40:32.031Z,99.00
2023-05-17T02:42:58.862Z,99.10
2023-05-17T02:45:26.227Z,99.10
2023-05-17T02:47:53.277Z,99.20
2023-05-17T02:50:21.594Z,99.20
2023-05-17T02:52:48.424Z,99.60
2023-05-17T02:55:15.479Z,99.40
2023-05-17T02:57:42.412Z,99.50
2023-05-17T03:00:09.880Z,99.50
2023-05-17T03:02:37.005Z,99.50
2023-05-17T03:05:04.981Z,99.50
2023-05-17T03:07:33.262Z,99.60
2023-05-17T03:10:00.090Z,99.60
2023-05-17T03:12:28.347Z,99.60
2023-05-17T03:14:56.403Z,99.60
2023-05-17T03:17:23.224Z,99.60
2023-05-17T03:19:50.217Z,99.60
2023-05-17T03:22:17.125Z,99.60
2023-05-17T03:24:45.667Z,99.60
2023-05-17T03:27:12.590Z,99.60
2023-05-17T03:29:39.533Z,99.50
2023-05-17T03:32:07.077Z,99.50
2023-05-17T03:34:33.976Z,99.50
2023-05-17T03:37:01.269Z,99.50
2023-05-17T03:39:28.163Z,99.50
2023-05-17T03:41:56.616Z,99.50
2023-05-17T03:44:23.490Z,99.50
2023-05-17T03:46:50.387Z,99.50
2023-05-17T03:49:17.534Z,99.50
2023-05-17T03:51:45.132Z,99.50
2023-05-17T03:54:11.992Z,99.50
2023-05-17T03:56:38.833Z,99.60
2023-05-17T03:59:07.103Z,99.60
2023-05-17T04:01:34.002Z,99.60
2023-05-17T04:04:04.020Z,99.70
2023-05-17T04:06:30.983Z,99.70
2023-05-17T04:08:59.557Z,99.80
2023-05-17T04:11:27.408Z,99.80
2023-05-17T04:13:54.775Z,99.90
2023-05-17T04:16:23.043Z,99.90
2023-05-17T04:18:53.105Z,99.90
2023-05-17T04:21:20.629Z,99.90
2023-05-17T04:23:47.473Z,99.90
2023-05-17T04:26:15.019Z,99.90
2023-05-17T04:28:41.839Z,99.90
2023-05-17T04:31:09.170Z,99.90
2023-05-17T04:33:37.839Z,99.90
2023-05-17T04:36:05.063Z,99.90
2023-05-17T04:38:31.940Z,99.90
2023-05-17T04:41:02.258Z,99.90
2023-05-17T04:43:29.246Z,99.90
2023-05-17T04:45:57.714Z,99.90
2023-05-17T04:48:26.261Z,99.90
2023-05-17T04:50:54.754Z,99.90
2023-05-17T04:53:21.677Z,99.90
2023-05-17T04:55:48.674Z,99.90
2023-05-17T04:58:15.511Z,99.90
2023-05-17T05:00:42.379Z,99.90
2023-05-17T05:03:09.376Z,99.90
2023-05-17T05:05:36.363Z,99.90
2023-05-17T05:08:04.781Z,99.90
2023-05-17T05:10:31.855Z,99.90
2023-05-17T05:12:58.810Z,99.90
2023-05-17T05:15:25.854Z,99.90
2023-05-17T05:17:52.900Z,99.90
2023-05-17T05:20:20.048Z,99.90
2023-05-17T05:22:46.907Z,99.90
2023-05-17T05:25:15.344Z,99.90
2023-05-17T05:27:42.280Z,99.90
2023-05-17T05:30:10.353Z,99.90
2023-05-17T05:32:40.039Z,99.90
2023-05-17T05:35:08.454Z,99.90
2023-05-17T05:37:35.384Z,99.90
2023-05-17T05:40:02.336Z,99.90
2023-05-17T05:42:30.725Z,99.90
2023-05-17T05:44:57.675Z,99.90
2023-05-17T05:47:24.601Z,99.90
2023-05-17T05:49:51.493Z,99.90
2023-05-17T05:52:18.464Z,99.90
2023-05-17T05:54:45.642Z,99.90
2023-05-17T05:57:12.560Z,99.90
2023-05-17T05:59:40.856Z,99.90
2023-05-17T06:02:08.539Z,99.90
2023-05-17T06:04:44.543Z,99.90
2023-05-17T06:07:12.941Z,99.90
2023-05-17T06:09:40.025Z,99.90
2023-05-17T06:12:07.216Z,99.90
2023-05-17T06:14:34.302Z,99.90
2023-05-17T06:17:04.896Z,99.90
2023-05-17T06:19:32.424Z,99.90
2023-05-17T06:21:59.595Z,99.90
2023-05-17T06:24:26.487Z,99.90
2023-05-17T06:26:53.419Z,99.90
2023-05-17T06:29:20.457Z,99.90
2023-05-17T06:31:48.049Z,99.90
2023-05-17T06:34:16.315Z,99.90
2023-05-17T06:36:43.392Z,99.90
2023-05-17T06:39:11.063Z,99.70
2023-05-17T06:41:38.123Z,99.50
2023-05-17T06:44:05.799Z,99.40
2023-05-17T06:46:32.734Z,99.30
2023-05-17T06:48:59.764Z,99.10
2023-05-17T06:51:28.233Z,98.90
2023-05-17T06:53:55.253Z,98.70
2023-05-17T06:56:22.227Z,98.50
2023-05-17T06:58:49.193Z,98.30
2023-05-17T07:01:16.941Z,97.90
2023-05-17T07:03:43.940Z,97.70
2023-05-17T07:06:11.637Z,97.50
2023-05-17T07:08:40.563Z,97.30
2023-05-17T07:11:07.684Z,97.20
2023-05-17T07:13:35.183Z,97.20
2023-05-17T07:16:02.171Z,96.90
2023-05-17T07:18:29.259Z,96.70
2023-05-17T07:20:56.253Z,96.50
2023-05-17T07:23:23.212Z,96.30
2023-05-17T07:25:51.628Z,96.30
2023-05-17T07:28:18.614Z,96.00
2023-05-17T07:30:48.439Z,95.70
2023-05-17T07:33:15.444Z,95.40
2023-05-17T07:35:42.407Z,95.20
2023-05-17T07:38:10.759Z,95.10
2023-05-17T07:40:37.700Z,94.90
2023-05-17T07:43:06.171Z,94.60
2023-05-17T07:45:33.288Z,94.30
2023-05-17T07:48:00.331Z,93.90
2023-05-17T07:50:27.908Z,93.70
2023-05-17T07:52:54.933Z,93.60
2023-05-17T07:55:21.904Z,93.50
2023-05-17T07:57:48.931Z,93.50
2023-05-17T08:00:19.266Z,93.60
2023-05-17T08:02:46.670Z,93.70
2023-05-17T08:05:13.788Z,93.50
2023-05-17T08:07:41.226Z,93.20
2023-05-17T08:10:08.644Z,93.00
2023-05-17T08:12:35.659Z,92.90
2023-05-17T08:15:02.740Z,92.80
2023-05-17T08:17:32.222Z,92.60
2023-05-17T08:19:59.227Z,92.50
2023-05-17T08:22:27.420Z,92.50
2023-05-17T08:24:54.381Z,92.40
2023-05-17T08:27:21.412Z,92.30
2023-05-17T08:29:48.388Z,92.20
2023-05-17T08:32:15.284Z,92.10
2023-05-17T08:34:43.862Z,92.10
2023-05-17T08:37:10.934Z,92.10
2023-05-17T08:39:37.851Z,92.20
2023-05-17T08:42:07.941Z,92.30
2023-05-17T08:44:36.380Z,92.30
2023-05-17T08:47:03.999Z,92.30
2023-05-17T08:49:34.122Z,92.30
2023-05-17T08:52:09.668Z,92.30
2023-05-17T08:54:36.785Z,92.20
2023-05-17T08:57:06.768Z,92.00
2023-05-17T08:59:35.203Z,91.80
2023-05-17T09:02:02.579Z,91.60
2023-05-17T09:04:31.053Z,91.40
2023-05-17T09:06:58.980Z,91.30
2023-05-17T09:09:27.868Z,91.20
2023-05-17T09:11:55.206Z,91.10
2023-05-17T09:14:22.256Z,91.10
2023-05-17T09:16:57.479Z,91.10
2023-05-17T09:19:24.591Z,91.10
2023-05-17T09:21:52.111Z,91.10
2023-05-17T09:24:20.287Z,91.20
2023-05-17T09:26:48.591Z,91.30
2023-05-17T09:29:16.483Z,91.30
2023-05-17T09:31:44.819Z,91.20
2023-05-17T09:34:12.120Z,91.10
2023-05-17T09:36:43.276Z,90.90
2023-05-17T09:39:12.801Z,91.00
2023-05-17T09:41:42.666Z,91.00
2023-05-17T09:44:11.907Z,91.00
2023-05-17T09:46:45.257Z,91.30
2023-05-17T09:49:13.008Z,90.80
2023-05-17T09:51:42.248Z,90.60
2023-05-17T09:54:13.437Z,90.50
2023-05-17T09:56:41.198Z,90.50
2023-05-17T09:59:14.747Z,90.30
2023-05-17T10:01:43.237Z,90.20
2023-05-17T10:04:11.305Z,90.30
2023-05-17T10:09:13.318Z,90.30
2023-05-17T10:11:44.008Z,90.30
2023-05-17T10:14:18.468Z,90.40
2023-05-17T10:16:45.966Z,90.40
2023-05-17T10:19:14.080Z,90.30
2023-05-17T10:21:43.094Z,90.00
2023-05-17T10:24:11.569Z,90.00
2023-05-17T10:26:39.360Z,89.80
2023-05-17T10:29:06.876Z,89.00
2023-05-17T10:31:36.449Z,88.80
2023-05-17T10:34:05.617Z,88.50
2023-05-17T10:36:33.890Z,88.20
2023-05-17T10:39:02.351Z,88.50
2023-05-17T10:41:32.971Z,88.90
2023-05-17T10:44:02.228Z,89.20
2023-05-17T10:46:31.595Z,89.00
2023-05-17T10:49:01.773Z,88.40
2023-05-17T10:51:32.295Z,87.50
2023-05-17T10:54:10.382Z,86.70
2023-05-17T10:56:40.614Z,86.30
2023-05-17T10:59:22.147Z,86.20
2023-05-17T11:01:53.474Z,85.90
2023-05-17T11:04:24.217Z,85.50
2023-05-17T11:06:52.635Z,85.40
2023-05-17T11:09:23.031Z,85.30
2023-05-17T11:12:05.081Z,84.70
2023-05-17T11:14:46.997Z,84.00
2023-05-17T11:17:17.984Z,83.70
2023-05-17T11:20:11.663Z,83.40
2023-05-17T11:22:42.269Z,82.30
2023-05-17T11:25:11.345Z,82.20
2023-05-17T11:27:43.163Z,81.80
2023-05-17T11:30:20.026Z,81.40
2023-05-17T11:32:50.851Z,80.60
2023-05-17T11:35:23.652Z,80.10
2023-05-17T11:37:52.705Z,79.80
2023-05-17T11:40:25.882Z,79.20
2023-05-17T11:43:14.114Z,78.70
2023-05-17T11:45:47.962Z,78.10
2023-05-17T11:48:16.552Z,78.30
2023-05-17T11:50:46.512Z,78.30
2023-05-17T11:53:14.202Z,78.20
2023-05-17T11:55:42.745Z,78.00
2023-05-17T11:58:10.948Z,77.20
2023-05-17T12:00:39.259Z,76.20
2023-05-17T12:03:20.079Z,75.50
2023-05-17T12:05:50.304Z,75.30
2023-05-17T12:08:18.332Z,75.60
2023-05-17T12:10:49.947Z,75.90
2023-05-17T12:13:17.311Z,76.40
2023-05-17T12:15:53.348Z,76.50
2023-05-17T12:18:20.773Z,75.70
2023-05-17T12:20:56.509Z,75.50
2023-05-17T12:23:28.823Z,75.50
2023-05-17T12:26:10.152Z,75.70
2023-05-17T12:28:38.854Z,75.50
2023-05-17T12:31:09.825Z,75.40
2023-05-17T12:33:39.913Z,75.30
2023-05-17T12:36:09.351Z,75.20
2023-05-17T12:38:38.015Z,75.30
2023-05-17T12:41:06.663Z,75.40
2023-05-17T12:43:34.224Z,75.40
2023-05-17T12:46:06.182Z,75.50
2023-05-17T12:48:35.066Z,75.60
2023-05-17T12:51:12.094Z,75.50
2023-05-17T12:53:41.177Z,74.70
2023-05-17T12:56:09.359Z,74.70
2023-05-17T12:58:36.631Z,74.90
2023-05-17T13:01:07.012Z,74.90
2023-05-17T13:03:34.507Z,74.80
2023-05-17T13:06:03.711Z,75.20
2023-05-17T13:08:32.541Z,74.30
2023-05-17T13:11:10.624Z,74.30
2023-05-17T13:13:37.926Z,74.50
2023-05-17T13:16:06.044Z,74.60
2023-05-17T13:18:49.336Z,74.80
2023-05-17T13:21:18.118Z,75.50
2023-05-17T13:23:47.465Z,75.70
2023-05-17T13:26:15.080Z,75.70
2023-05-17T13:28:42.169Z,75.30
2023-05-17T13:31:09.293Z,74.90
2023-05-17T13:33:36.421Z,74.50
2023-05-17T13:36:03.840Z,74.00
2023-05-17T13:38:30.906Z,73.80
2023-05-17T13:40:59.230Z,74.00
2023-05-17T13:43:26.186Z,74.50
2023-05-17T13:45:56.812Z,74.40
2023-05-17T13:48:24.091Z,74.50
2023-05-17T13:50:51.185Z,74.50
2023-05-17T13:53:18.341Z,74.40
2023-05-17T13:55:45.345Z,74.40
2023-05-17T13:58:13.815Z,74.50
2023-05-17T14:00:43.877Z,74.40
2023-05-17T14:03:12.228Z,74.40
2023-05-17T14:05:39.957Z,74.60
2023-05-17T14:08:07.660Z,74.30
2023-05-17T14:10:34.893Z,74.10
2023-05-17T14:13:02.153Z,74.00
2023-05-17T14:15:31.443Z,73.90
2023-05-17T14:17:58.696Z,74.00
2023-05-17T14:20:25.691Z,74.10
2023-05-17T14:22:52.608Z,74.20
2023-05-17T14:25:20.095Z,74.40
2023-05-17T14:27:47.050Z,75.00
2023-05-17T14:30:15.118Z,75.10
2023-05-17T14:32:43.581Z,75.10
2023-05-17T14:35:10.790Z,74.90
2023-05-17T14:37:37.916Z,74.90
2023-05-17T14:40:07.074Z,75.00
2023-05-17T14:42:34.580Z,74.70
2023-05-17T14:45:01.751Z,74.80
2023-05-17T14:47:28.946Z,74.80
2023-05-17T14:49:57.534Z,74.60
2023-05-17T14:52:24.582Z,74.40
2023-05-17T14:54:51.552Z,74.60
2023-05-17T14:57:18.714Z,74.50
2023-05-17T14:59:45.814Z,74.10
2023-05-17T15:02:13.159Z,73.80
2023-05-17T15:04:40.298Z,73.70
2023-05-17T15:07:08.697Z,73.70
2023-05-17T15:09:39.664Z,73.90
2023-05-17T15:12:07.496Z,74.00
2023-05-17T15:14:34.351Z,73.80
2023-05-17T15:17:03.231Z,73.90
2023-05-17T15:19:30.409Z,73.80
2023-05-17T15:21:57.522Z,73.50
2023-05-17T15:24:26.104Z,73.50
2023-05-17T15:26:53.001Z,73.30
2023-05-17T15:29:19.909Z,73.40
2023-05-17T15:31:46.866Z,73.50
2023-05-17T15:34:13.842Z,73.60
2023-05-17T15:36:40.956Z,73.70
2023-05-17T15:39:08.664Z,73.70
2023-05-17T15:41:37.406Z,73.80
2023-05-17T15:44:05.480Z,74.00
2023-05-17T15:46:32.590Z,74.00
2023-05-17T15:48:59.504Z,73.80
2023-05-17T15:51:26.500Z,73.70
2023-05-17T15:53:53.471Z,73.70
2023-05-17T15:56:21.046Z,73.90
2023-05-17T15:58:49.642Z,74.00
2023-05-17T16:01:16.690Z,74.00
2023-05-17T16:03:43.622Z,73.90
2023-05-17T16:06:10.882Z,74.10
2023-05-17T16:08:38.149Z,74.20
2023-05-17T16:11:06.484Z,74.30
2023-05-17T16:13:33.468Z,74.30
2023-05-17T16:16:01.889Z,74.30
2023-05-17T16:18:31.273Z,74.30
2023-05-17T16:20:59.398Z,74.40
2023-05-17T16:23:26.475Z,74.50
2023-05-17T16:25:54.555Z,74.50
2023-05-17T16:28:21.985Z,74.40
2023-05-17T16:30:49.245Z,74.50
2023-05-17T16:33:20.053Z,74.90
2023-05-17T16:35:48.244Z,75.00
2023-05-17T16:38:15.184Z,75.10
2023-05-17T16:40:42.218Z,74.80
2023-05-17T16:43:09.149Z,74.70
2023-05-17T16:45:36.171Z,74.40
2023-05-17T16:48:03.220Z,74.40
2023-05-17T16:50:31.756Z,74.60
2023-05-17T16:52:58.817Z,74.70
2023-05-17T16:55:25.893Z,74.70
2023-05-17T16:57:52.880Z,74.50
2023-05-17T17:00:20.541Z,74.50
2023-05-17T17:02:47.470Z,74.90
2023-05-17T17:05:14.440Z,75.10
2023-05-17T17:07:42.727Z,75.20
2023-05-17T17:10:10.874Z,75.30
2023-05-17T17:12:37.803Z,75.10
2023-05-17T17:15:07.557Z,75.00
2023-05-17T17:17:34.807Z,75.00
2023-05-17T17:20:02.065Z,75.10
2023-05-17T17:22:28.908Z,75.20
2023-05-17T17:24:57.303Z,75.70
2023-05-17T17:27:24.231Z,76.10
2023-05-17T17:29:51.400Z,76.30
2023-05-17T17:32:18.418Z,76.30
2023-05-17T17:34:45.322Z,76.20
2023-05-17T17:37:12.257Z,76.10
2023-05-17T17:39:39.164Z,76.20
2023-05-17T17:42:09.191Z,76.20
2023-05-17T17:44:36.201Z,76.20
2023-05-17T17:47:03.190Z,76.30
2023-05-17T17:49:30.200Z,76.30
2023-05-17T17:51:58.226Z,76.30
2023-05-17T17:54:25.189Z,76.40
2023-05-17T17:56:52.357Z,76.50
2023-05-17T17:59:20.756Z,76.70
2023-05-17T18:01:47.662Z,77.00
2023-05-17T18:04:16.129Z,77.10
2023-05-17T18:06:43.814Z,77.30
2023-05-17T18:09:10.737Z,77.40
2023-05-17T18:11:37.681Z,77.60
2023-05-17T18:14:04.652Z,77.70
2023-05-17T18:16:33.019Z,78.00
2023-05-17T18:19:00.778Z,78.30
2023-05-17T18:21:29.397Z,78.40
2023-05-17T18:23:56.379Z,78.70
2023-05-17T18:26:23.372Z,78.90
2023-05-17T18:28:50.677Z,79.00
2023-05-17T18:31:18.416Z,79.20
2023-05-17T18:33:46.924Z,79.30
2023-05-17T18:36:13.949Z,79.40
2023-05-17T18:38:41.233Z,79.50
2023-05-17T18:41:08.160Z,79.60
2023-05-17T18:43:35.114Z,79.80
2023-05-17T18:46:02.262Z,80.00
2023-05-17T18:48:29.191Z,80.20
2023-05-17T18:50:57.702Z,80.40
2023-05-17T18:53:24.778Z,80.60
2023-05-17T18:55:51.735Z,80.80
2023-05-17T18:58:18.676Z,81.00
2023-05-17T19:00:48.096Z,81.20
2023-05-17T19:03:15.298Z,81.40
2023-05-17T19:05:42.288Z,81.50
2023-05-17T19:08:10.625Z,81.80
2023-05-17T19:10:37.605Z,81.50
2023-05-17T19:13:06.558Z,81.50
2023-05-17T19:15:33.674Z,81.60
2023-05-17T19:18:00.698Z,81.60
2023-05-17T19:20:28.023Z,81.70
2023-05-17T19:22:55.383Z,81.80
2023-05-17T19:25:23.854Z,82.00
2023-05-17T19:27:50.812Z,82.10
2023-05-17T19:30:17.688Z,82.20
2023-05-17T19:32:44.725Z,82.20
2023-05-17T19:35:11.805Z,82.40
2023-05-17T19:37:38.828Z,82.50
2023-05-17T19:40:07.039Z,82.50
2023-05-17T19:42:35.412Z,82.60
2023-05-17T19:45:02.301Z,82.70
2023-05-17T19:47:29.150Z,82.60
2023-05-17T19:49:56.272Z,82.70
2023-05-17T19:52:23.190Z,82.70
2023-05-17T19:54:50.106Z,82.80
2023-05-17T19:57:17.162Z,82.80
2023-05-17T19:59:45.823Z,82.90
2023-05-17T20:02:12.884Z,82.90
2023-05-17T20:04:39.950Z,82.90
2023-05-17T20:07:07.239Z,82.90
2023-05-17T20:09:34.283Z,82.80
2023-05-17T20:12:01.506Z,82.80
2023-05-17T20:14:28.441Z,83.00
2023-05-17T20:16:56.910Z,82.90
2023-05-17T20:19:24.840Z,83.00
2023-05-17T20:21:52.086Z,83.20
2023-05-17T20:24:19.414Z,84.10
2023-05-17T20:26:48.786Z,84.30
2023-05-17T20:29:15.781Z,83.70
2023-05-17T20:31:42.804Z,83.90
2023-05-17T20:34:11.958Z,84.10
2023-05-17T20:36:38.948Z,84.40
2023-05-17T20:39:05.813Z,84.70
2023-05-17T20:41:32.777Z,84.90
2023-05-17T20:43:59.804Z,85.10
2023-05-17T20:46:29.821Z,85.30
2023-05-17T20:48:58.074Z,85.50
2023-05-17T20:51:27.327Z,85.80
2023-05-17T20:53:54.271Z,86.60
2023-05-17T20:56:21.129Z,86.10
2023-05-17T20:58:48.287Z,86.20
2023-05-17T21:01:15.566Z,86.30
2023-05-17T21:03:43.759Z,86.40
2023-05-17T21:06:11.622Z,86.50
2023-05-17T21:08:40.068Z,86.40
2023-05-17T21:11:07.036Z,86.40
2023-05-17T21:13:34.290Z,86.30
2023-05-17T21:16:01.331Z,86.20
2023-05-17T21:18:28.439Z,86.30
2023-05-17T21:20:55.481Z,86.50
2023-05-17T21:23:22.471Z,86.60
2023-05-17T21:25:50.810Z,86.70
2023-05-17T21:28:17.717Z,86.80
2023-05-17T21:30:44.634Z,86.90
2023-05-17T21:33:11.883Z,87.00
2023-05-17T21:35:38.913Z,87.10
2023-05-17T21:38:05.752Z,87.30
2023-05-17T21:40:32.874Z,87.40
2023-05-17T21:43:01.351Z,87.60
2023-05-17T21:45:28.332Z,87.70
2023-05-17T21:47:55.536Z,87.80
2023-05-17T21:50:22.740Z,87.90
2023-05-17T21:52:49.839Z,88.00
2023-05-17T21:55:16.970Z,88.00
2023-05-17T21:57:43.868Z,88.00
2023-05-17T22:00:12.916Z,88.20
2023-05-17T22:02:41.043Z,88.10
2023-05-17T22:05:08.603Z,88.10
2023-05-17T22:07:36.034Z,88.20
2023-05-17T22:10:04.326Z,88.40
2023-05-17T22:12:31.353Z,88.50
2023-05-17T22:14:58.601Z,88.40
2023-05-17T22:17:35.099Z,88.40
2023-05-17T22:20:11.496Z,88.50
2023-05-17T22:22:38.679Z,88.50
2023-05-17T22:25:06.883Z,88.50
2023-05-17T22:27:33.869Z,88.70
2023-05-17T22:30:01.168Z,88.70
2023-05-17T22:32:29.489Z,88.90
2023-05-17T22:34:56.481Z,89.10
2023-05-17T22:37:23.598Z,89.20
2023-05-17T22:39:50.655Z,89.30
2023-05-17T22:42:17.595Z,89.50
2023-05-17T22:44:44.513Z,89.60
2023-05-17T22:47:14.553Z,89.70
2023-05-17T22:49:43.375Z,89.70
2023-05-17T22:52:11.148Z,89.90
2023-05-17T22:54:39.119Z,90.00
2023-05-17T22:57:06.357Z,90.00
2023-05-17T22:59:33.371Z,90.00
2023-05-17T23:02:01.302Z,90.00
2023-05-17T23:04:29.885Z,90.10
2023-05-17T23:07:02.435Z,90.20
2023-05-17T23:09:30.073Z,90.30
2023-05-17T23:11:57.343Z,90.30
2023-05-17T23:14:24.363Z,90.30
2023-05-17T23:16:51.248Z,90.30
2023-05-17T23:19:18.238Z,90.40
2023-05-17T23:21:46.435Z,90.40
2023-05-17T23:24:14.719Z,90.40
2023-05-17T23:26:41.565Z,90.40
2023-05-17T23:29:10.902Z,90.40
2023-05-17T23:31:38.530Z,90.50
2023-05-17T23:34:06.928Z,90.50
2023-05-17T23:36:34.110Z,90.60
2023-05-17T23:39:01.038Z,90.50
2023-05-17T23:41:29.455Z,90.50
2023-05-17T23:43:57.120Z,90.60
2023-05-17T23:46:24.258Z,90.70
2023-05-17T23:48:51.313Z,90.70
2023-05-17T23:51:19.328Z,90.70
2023-05-17T23:53:48.741Z,90.70
2023-05-17T23:56:16.926Z,90.80
2023-05-17T23:58:45.557Z,90.80
